Pontlliw, United Kingdom
Current Conditions -  °F | °C
As of 11:50 AM on Sunday 21 Dec 2014 (Local Time) from EGOP Reporting Station
Broken Clouds Broken Clouds  
Wind Chill: 50°   Ceiling: 2300
Heat Index: 50°   Visibility: 6mi
Dew Point: 50°   Wind: 29mph
Humidity: 100%   Direction: 240°WSW
Pressure: 30.3"   Gusts: NA
Location:  51.69°N, 4.01°W
Report Text: EGOP 211150Z AUTO 24025KT 9999 // FEW010/// BKN023/// 10/10 Q1026
Loading
Personal Weather Stations






























Interactive Weather Map New forecast layout! Learn more

10-Day Weather Forecast

Advertisements
Track Severe Weather on mobile